createdAt,value
2019-03-11T00:01:53.382Z,8.70
2019-03-11T00:04:22.217Z,8.70
2019-03-11T00:06:50.414Z,8.60
2019-03-11T00:09:18.112Z,8.40
2019-03-11T00:11:45.888Z,8.30
2019-03-11T00:14:13.573Z,8.20
2019-03-11T00:16:41.259Z,8.20
2019-03-11T00:19:08.958Z,8.20
2019-03-11T00:21:36.628Z,8.10
2019-03-11T00:24:04.321Z,8.10
2019-03-11T00:26:32.003Z,8.10
2019-03-11T00:28:59.625Z,8.10
2019-03-11T00:31:27.450Z,8.20
2019-03-11T00:33:55.129Z,8.20
2019-03-11T00:36:22.998Z,8.30
2019-03-11T00:38:50.793Z,8.20
2019-03-11T00:41:18.455Z,8.40
2019-03-11T00:43:46.186Z,8.40
2019-03-11T00:46:13.865Z,8.50
2019-03-11T00:48:41.501Z,8.50
2019-03-11T00:51:09.195Z,8.50
2019-03-11T00:53:36.858Z,8.60
2019-03-11T00:56:04.556Z,8.50
2019-03-11T00:58:32.294Z,8.40
2019-03-11T01:00:59.974Z,8.30
2019-03-11T01:03:27.696Z,8.30
2019-03-11T01:05:55.460Z,8.40
2019-03-11T01:08:23.105Z,8.30
2019-03-11T01:10:50.747Z,8.20
2019-03-11T01:13:18.421Z,8.10
2019-03-11T01:15:46.121Z,8.00
2019-03-11T01:18:13.761Z,8.10
2019-03-11T01:20:41.436Z,8.20
2019-03-11T01:23:09.061Z,8.40
2019-03-11T01:25:36.752Z,8.10
2019-03-11T01:28:04.408Z,8.10
2019-03-11T01:30:33.095Z,8.10
2019-03-11T01:33:00.749Z,8.20
2019-03-11T01:35:29.412Z,8.20
2019-03-11T01:37:57.102Z,8.10
2019-03-11T01:40:24.805Z,8.00
2019-03-11T01:42:52.452Z,7.90
2019-03-11T01:45:20.173Z,8.10
2019-03-11T01:47:47.946Z,8.10
2019-03-11T01:50:15.770Z,8.00
2019-03-11T01:52:43.405Z,7.90
2019-03-11T01:55:11.263Z,8.00
2019-03-11T01:57:39.061Z,8.10
2019-03-11T02:00:09.257Z,8.20
2019-03-11T02:02:36.997Z,8.30
2019-03-11T02:05:04.733Z,8.30
2019-03-11T02:07:32.404Z,8.40
2019-03-11T02:10:00.077Z,8.40
2019-03-11T02:12:28.493Z,8.40
2019-03-11T02:14:56.208Z,8.20
2019-03-11T02:17:23.857Z,8.10
2019-03-11T02:19:51.639Z,8.10
2019-03-11T02:22:19.279Z,8.10
2019-03-11T02:24:47.038Z,8.20
2019-03-11T02:27:14.763Z,8.20
2019-03-11T02:29:42.427Z,8.30
2019-03-11T02:32:10.163Z,8.40
2019-03-11T02:34:37.903Z,8.30
2019-03-11T02:37:05.651Z,8.30
2019-03-11T02:39:33.414Z,8.30
2019-03-11T02:42:01.177Z,8.30
2019-03-11T02:44:28.830Z,8.20
2019-03-11T02:46:56.596Z,8.20
2019-03-11T02:49:24.223Z,8.20
2019-03-11T02:51:51.838Z,8.10
2019-03-11T02:54:19.495Z,8.30
2019-03-11T02:56:47.128Z,8.20
2019-03-11T02:59:14.854Z,8.10
2019-03-11T03:01:59.220Z,8.20
2019-03-11T03:04:37.638Z,8.20
2019-03-11T03:07:05.266Z,8.20
2019-03-11T03:09:32.997Z,8.20
2019-03-11T03:12:00.759Z,8.20
2019-03-11T03:14:28.543Z,8.00
2019-03-11T03:16:56.203Z,7.90
2019-03-11T03:19:23.859Z,7.90
2019-03-11T03:21:51.520Z,7.90
2019-03-11T03:24:19.366Z,7.90
2019-03-11T03:26:46.994Z,7.90
2019-03-11T03:29:14.645Z,7.90
2019-03-11T03:31:42.349Z,7.90
2019-03-11T03:34:09.990Z,8.00
2019-03-11T03:36:37.752Z,8.00
2019-03-11T03:39:06.926Z,8.00
2019-03-11T03:41:34.711Z,8.10
2019-03-11T03:44:02.433Z,8.10
2019-03-11T03:46:30.469Z,8.00
2019-03-11T03:48:58.124Z,8.00
2019-03-11T03:51:25.755Z,8.00
2019-03-11T03:53:53.389Z,8.10
2019-03-11T03:56:21.041Z,8.10
2019-03-11T03:58:48.678Z,8.10
2019-03-11T04:01:16.317Z,8.00
2019-03-11T04:03:44.075Z,8.10
2019-03-11T04:06:11.781Z,8.10
2019-03-11T04:08:39.450Z,8.10
2019-03-11T04:11:07.127Z,8.10
2019-03-11T04:13:34.793Z,8.10
2019-03-11T04:16:02.648Z,8.10
2019-03-11T04:18:55.623Z,8.10
2019-03-11T04:21:23.265Z,8.00
2019-03-11T04:23:51.012Z,8.00
2019-03-11T04:26:18.648Z,8.00
2019-03-11T04:28:46.369Z,8.10
2019-03-11T04:31:13.990Z,8.10
2019-03-11T04:33:41.641Z,8.10
2019-03-11T04:36:09.281Z,7.90
2019-03-11T04:38:38.133Z,7.80
2019-03-11T04:41:05.815Z,7.80
2019-03-11T04:43:33.480Z,7.80
2019-03-11T04:46:01.231Z,7.90
2019-03-11T04:48:28.932Z,7.90
2019-03-11T04:50:56.594Z,7.90
2019-03-11T04:53:24.261Z,7.90
2019-03-11T04:55:51.898Z,7.90
2019-03-11T04:58:19.586Z,7.90
2019-03-11T05:00:47.240Z,8.00
2019-03-11T05:03:14.933Z,7.90
2019-03-11T05:05:42.561Z,7.90
2019-03-11T05:08:10.246Z,7.80
2019-03-11T05:10:37.865Z,7.70
2019-03-11T05:13:05.527Z,7.70
2019-03-11T05:15:33.218Z,7.70
2019-03-11T05:18:00.841Z,7.70
2019-03-11T05:20:28.553Z,7.70
2019-03-11T05:22:56.253Z,7.80
2019-03-11T05:25:23.903Z,7.80
2019-03-11T05:27:54.039Z,7.90
2019-03-11T05:30:21.703Z,7.80
2019-03-11T05:32:49.342Z,7.90
2019-03-11T05:35:18.026Z,8.00
2019-03-11T05:37:45.736Z,8.00
2019-03-11T05:40:13.577Z,8.00
2019-03-11T05:42:41.201Z,8.00
2019-03-11T05:45:10.498Z,8.20
2019-03-11T05:47:38.198Z,8.20
2019-03-11T05:50:06.718Z,7.90
2019-03-11T05:52:34.406Z,7.80
2019-03-11T05:55:03.180Z,8.00
2019-03-11T05:57:30.858Z,8.30
2019-03-11T05:59:59.278Z,8.40
2019-03-11T06:02:28.013Z,8.20
2019-03-11T06:04:56.849Z,8.20
2019-03-11T06:07:24.509Z,8.30
2019-03-11T06:09:52.142Z,8.30
2019-03-11T06:12:19.824Z,8.20
2019-03-11T06:14:47.561Z,8.00
2019-03-11T06:17:15.257Z,7.90
2019-03-11T06:19:42.937Z,8.00
2019-03-11T06:22:19.598Z,7.90
2019-03-11T06:24:47.228Z,7.60
2019-03-11T06:27:14.907Z,7.20
2019-03-11T06:29:42.540Z,6.90
2019-03-11T06:32:10.301Z,6.50
2019-03-11T06:34:37.910Z,6.50
2019-03-11T06:37:05.612Z,6.30
2019-03-11T06:39:33.273Z,6.10
2019-03-11T06:42:00.918Z,6.10
2019-03-11T06:44:28.726Z,5.80
2019-03-11T06:46:56.357Z,5.60
2019-03-11T06:49:24.840Z,5.20
2019-03-11T06:51:52.453Z,4.90
2019-03-11T06:54:20.147Z,4.90
2019-03-11T06:56:47.805Z,5.00
2019-03-11T06:59:15.472Z,5.10
2019-03-11T07:01:43.163Z,5.20
2019-03-11T07:04:10.883Z,5.20
2019-03-11T07:06:38.597Z,4.90
2019-03-11T07:09:07.869Z,4.70
2019-03-11T07:11:35.675Z,4.60
2019-03-11T07:14:03.460Z,4.70
2019-03-11T07:16:31.133Z,4.90
2019-03-11T07:18:58.830Z,4.80
2019-03-11T07:21:26.516Z,5.00
2019-03-11T07:23:54.178Z,4.90
2019-03-11T07:26:22.018Z,5.00
2019-03-11T07:28:49.629Z,5.10
2019-03-11T07:31:17.284Z,5.10
2019-03-11T07:33:44.905Z,5.20
2019-03-11T07:36:12.590Z,5.50
2019-03-11T07:38:40.313Z,5.60
2019-03-11T07:41:08.001Z,5.60
2019-03-11T07:43:35.686Z,5.60
2019-03-11T07:46:03.310Z,5.80
2019-03-11T07:48:30.954Z,6.10
2019-03-11T07:50:58.632Z,6.10
2019-03-11T07:53:26.265Z,6.10
2019-03-11T07:55:53.930Z,6.30
2019-03-11T07:58:21.681Z,6.50
2019-03-11T08:00:53.920Z,6.60
2019-03-11T08:03:18.921Z,6.40
2019-03-11T08:05:46.565Z,6.40
2019-03-11T08:08:14.212Z,6.40
2019-03-11T08:10:41.956Z,6.40
2019-03-11T08:13:09.650Z,6.40
2019-03-11T08:15:37.375Z,6.50
2019-03-11T08:18:05.214Z,6.70
2019-03-11T08:20:32.975Z,6.80
2019-03-11T08:23:00.805Z,7.00
2019-03-11T08:25:28.449Z,6.80
2019-03-11T08:27:56.082Z,6.90
2019-03-11T08:30:23.822Z,7.10
2019-03-11T08:32:51.518Z,7.30
2019-03-11T08:35:19.214Z,7.50
2019-03-11T08:37:46.915Z,7.40
2019-03-11T08:40:14.625Z,7.30
2019-03-11T08:42:42.320Z,7.20
2019-03-11T08:45:11.238Z,7.20
2019-03-11T08:47:38.894Z,7.30
2019-03-11T08:50:07.756Z,7.40
2019-03-11T08:52:35.518Z,7.50
2019-03-11T08:55:05.017Z,7.50
2019-03-11T08:57:32.674Z,7.50
2019-03-11T09:00:00.641Z,7.50
2019-03-11T09:02:28.312Z,7.40
2019-03-11T09:04:56.109Z,7.30
2019-03-11T09:07:23.758Z,7.30
2019-03-11T09:09:51.426Z,7.40
2019-03-11T09:12:19.062Z,7.50
2019-03-11T09:14:46.763Z,7.60
2019-03-11T09:17:14.461Z,7.70
2019-03-11T09:19:42.167Z,7.80
2019-03-11T09:22:09.869Z,7.80
2019-03-11T09:24:37.654Z,8.00
2019-03-11T09:27:05.486Z,8.00
2019-03-11T09:29:33.194Z,8.20
2019-03-11T09:32:01.766Z,8.60
2019-03-11T09:34:29.533Z,8.60
2019-03-11T09:36:57.270Z,8.70
2019-03-11T09:39:24.930Z,8.90
2019-03-11T09:41:52.549Z,8.80
2019-03-11T09:44:20.221Z,8.50
2019-03-11T09:46:47.850Z,8.30
2019-03-11T09:49:15.517Z,8.20
2019-03-11T09:51:43.174Z,8.20
2019-03-11T09:54:10.858Z,8.10
2019-03-11T09:56:43.290Z,8.30
2019-03-11T09:59:08.091Z,8.20
2019-03-11T10:01:35.759Z,8.20
2019-03-11T10:04:03.508Z,8.00
2019-03-11T10:06:31.193Z,8.00
2019-03-11T10:08:58.926Z,7.90
2019-03-11T10:11:26.570Z,7.90
2019-03-11T10:13:54.213Z,7.90
2019-03-11T10:16:21.954Z,7.90
2019-03-11T10:18:50.424Z,7.90
2019-03-11T10:21:18.284Z,8.10
2019-03-11T10:23:46.557Z,8.00
2019-03-11T10:26:16.750Z,8.10
2019-03-11T10:28:44.471Z,8.00
2019-03-11T10:31:12.275Z,8.10
2019-03-11T10:33:40.019Z,8.20
2019-03-11T10:36:07.710Z,8.10
2019-03-11T10:38:35.465Z,8.00
2019-03-11T10:41:03.129Z,8.00
2019-03-11T10:43:30.814Z,8.00
2019-03-11T10:45:58.527Z,8.10
2019-03-11T10:48:36.380Z,8.20
2019-03-11T10:50:55.962Z,8.30
2019-03-11T10:53:23.919Z,8.50
2019-03-11T10:55:51.553Z,8.70
2019-03-11T10:58:19.230Z,8.80
2019-03-11T11:00:46.921Z,8.90
2019-03-11T11:03:14.606Z,9.00
2019-03-11T11:05:42.268Z,9.10
2019-03-11T11:08:09.938Z,8.80
2019-03-11T11:10:37.606Z,8.60
2019-03-11T11:13:05.290Z,8.50
2019-03-11T11:15:32.973Z,8.50
2019-03-11T11:18:00.741Z,8.40
2019-03-11T11:20:28.396Z,8.50
2019-03-11T11:22:56.138Z,8.30
2019-03-11T11:25:23.836Z,8.10
2019-03-11T11:27:51.613Z,8.00
2019-03-11T11:30:20.209Z,8.10
2019-03-11T11:32:47.842Z,8.30
2019-03-11T11:35:15.818Z,8.40
2019-03-11T11:37:43.463Z,8.50
2019-03-11T11:40:13.317Z,8.50
2019-03-11T11:42:41.959Z,8.70
2019-03-11T11:45:11.241Z,8.70
2019-03-11T11:47:38.862Z,8.80
2019-03-11T11:50:08.004Z,8.80
2019-03-11T11:52:35.714Z,9.10
2019-03-11T11:55:04.131Z,9.30
2019-03-11T11:57:31.781Z,9.40
2019-03-11T11:59:59.461Z,9.30
2019-03-11T12:02:27.263Z,9.20
2019-03-11T12:04:54.896Z,9.10
2019-03-11T12:07:22.620Z,9.10
2019-03-11T12:09:50.322Z,9.00
2019-03-11T12:12:30.562Z,8.80
2019-03-11T12:14:59.315Z,8.80
2019-03-11T12:17:27.029Z,8.80
2019-03-11T12:19:54.729Z,8.90
2019-03-11T12:22:22.410Z,8.90
2019-03-11T12:24:50.038Z,8.90
2019-03-11T12:27:17.862Z,8.90
2019-03-11T12:29:45.529Z,8.90
2019-03-11T12:32:13.438Z,8.90
2019-03-11T12:34:59.921Z,9.00
2019-03-11T12:37:27.789Z,8.90
2019-03-11T12:39:55.545Z,9.10
2019-03-11T12:42:23.268Z,9.20
2019-03-11T12:44:53.558Z,9.20
2019-03-11T12:47:20.528Z,9.20
2019-03-11T12:49:48.159Z,9.40
2019-03-11T12:52:15.816Z,9.40
2019-03-11T12:54:43.575Z,9.30
2019-03-11T12:57:11.417Z,9.20
2019-03-11T12:59:40.640Z,9.20
2019-03-11T13:02:08.698Z,9.20
2019-03-11T13:04:36.338Z,9.20
2019-03-11T13:07:04.029Z,9.20
2019-03-11T13:09:31.803Z,9.20
2019-03-11T13:11:59.578Z,9.20
2019-03-11T13:14:28.213Z,9.10
2019-03-11T13:16:55.945Z,9.20
2019-03-11T13:19:24.255Z,9.30
2019-03-11T13:21:52.025Z,9.20
2019-03-11T13:24:19.706Z,9.20
2019-03-11T13:26:47.369Z,9.20
2019-03-11T13:29:15.063Z,9.20
2019-03-11T13:31:42.765Z,9.30
2019-03-11T13:34:10.469Z,9.20
2019-03-11T13:36:38.402Z,9.10
2019-03-11T13:39:06.843Z,9.10
2019-03-11T13:41:35.188Z,9.00
2019-03-11T13:44:02.921Z,8.90
2019-03-11T13:46:30.574Z,8.90
2019-03-11T13:48:58.253Z,8.90
2019-03-11T13:51:25.960Z,9.10
2019-03-11T13:53:53.644Z,9.10
2019-03-11T13:56:21.298Z,9.20
2019-03-11T13:58:49.134Z,9.20
2019-03-11T14:01:16.793Z,9.30
2019-03-11T14:03:44.495Z,9.30
2019-03-11T14:06:12.149Z,9.40
2019-03-11T14:08:39.905Z,9.40
2019-03-11T14:11:07.490Z,9.50
2019-03-11T14:13:35.355Z,9.50
2019-03-11T14:16:03.009Z,9.30
2019-03-11T14:18:30.694Z,9.30
2019-03-11T14:20:58.366Z,9.20
2019-03-11T14:23:26.034Z,9.10
2019-03-11T14:25:53.719Z,9.10
2019-03-11T14:28:21.496Z,9.20
2019-03-11T14:30:49.247Z,9.20
2019-03-11T14:33:17.217Z,9.10
2019-03-11T14:35:45.975Z,9.10
2019-03-11T14:38:13.690Z,9.20
2019-03-11T14:40:41.521Z,9.20
2019-03-11T14:43:09.267Z,9.10
2019-03-11T14:45:37.002Z,9.20
2019-03-11T14:48:04.652Z,9.20
2019-03-11T14:50:32.354Z,9.20
2019-03-11T14:52:59.998Z,9.30
2019-03-11T14:55:28.000Z,9.10
2019-03-11T14:57:55.791Z,9.00
2019-03-11T15:00:23.514Z,9.00
2019-03-11T15:02:51.147Z,8.90
2019-03-11T15:05:18.923Z,8.60
2019-03-11T15:07:46.602Z,8.20
2019-03-11T15:10:14.916Z,7.90
2019-03-11T15:12:42.654Z,7.90
2019-03-11T15:15:12.278Z,7.90
2019-03-11T15:17:40.144Z,8.00
2019-03-11T15:20:09.149Z,8.20
2019-03-11T15:22:36.847Z,8.40
2019-03-11T15:25:23.150Z,8.60
2019-03-11T15:27:50.905Z,8.80
2019-03-11T15:30:18.595Z,8.90
2019-03-11T15:32:46.408Z,9.20
2019-03-11T15:35:14.174Z,9.20
2019-03-11T15:37:41.897Z,9.30
2019-03-11T15:40:10.528Z,9.30
2019-03-11T15:42:38.359Z,9.30
2019-03-11T15:45:07.119Z,9.00
2019-03-11T15:47:34.813Z,9.00
2019-03-11T15:50:02.498Z,9.00
2019-03-11T15:52:30.208Z,9.10
2019-03-11T15:54:57.936Z,9.30
2019-03-11T15:57:25.611Z,9.50
2019-03-11T15:59:53.343Z,9.60
2019-03-11T16:02:21.091Z,9.60
2019-03-11T16:04:48.749Z,9.60
2019-03-11T16:07:16.458Z,9.30
2019-03-11T16:09:44.125Z,9.10
2019-03-11T16:12:11.809Z,9.00
2019-03-11T16:14:48.904Z,9.00
2019-03-11T16:17:09.086Z,9.00
2019-03-11T16:19:36.918Z,8.90
2019-03-11T16:22:04.622Z,9.10
2019-03-11T16:24:32.313Z,9.20
2019-03-11T16:26:59.989Z,9.30
2019-03-11T16:29:27.725Z,9.20
2019-03-11T16:31:55.441Z,9.00
2019-03-11T16:34:23.064Z,9.00
2019-03-11T16:36:50.758Z,8.90
2019-03-11T16:39:18.464Z,8.90
2019-03-11T16:41:46.228Z,9.00
2019-03-11T16:44:13.898Z,9.00
2019-03-11T16:46:41.548Z,8.80
2019-03-11T16:49:09.373Z,8.90
2019-03-11T16:51:37.068Z,8.80
2019-03-11T16:54:04.780Z,8.80
2019-03-11T16:56:32.441Z,8.90
2019-03-11T16:59:00.126Z,8.90
2019-03-11T17:01:28.217Z,8.90
2019-03-11T17:03:55.920Z,8.90
2019-03-11T17:06:23.577Z,8.90
2019-03-11T17:08:51.287Z,8.80
2019-03-11T17:11:19.049Z,8.80
2019-03-11T17:13:46.741Z,8.80
2019-03-11T17:16:14.400Z,8.70
2019-03-11T17:18:42.222Z,8.90
2019-03-11T17:21:09.889Z,9.00
2019-03-11T17:23:37.595Z,8.90
2019-03-11T17:26:05.284Z,9.00
2019-03-11T17:28:33.975Z,9.00
2019-03-11T17:31:01.806Z,8.90
2019-03-11T17:33:29.551Z,8.70
2019-03-11T17:35:57.244Z,8.70
2019-03-11T17:38:24.949Z,8.70
2019-03-11T17:40:52.727Z,8.80
2019-03-11T17:43:20.393Z,8.90
2019-03-11T17:45:48.079Z,8.90
2019-03-11T17:48:15.829Z,8.90
2019-03-11T17:50:43.542Z,8.90
2019-03-11T17:53:19.513Z,8.90
2019-03-11T17:55:40.895Z,9.00
2019-03-11T17:58:08.576Z,8.90
2019-03-11T18:00:39.037Z,8.90
2019-03-11T18:03:06.829Z,8.90
2019-03-11T18:05:34.526Z,8.90
2019-03-11T18:08:03.392Z,8.90
2019-03-11T18:10:31.234Z,8.80
2019-03-11T18:12:59.049Z,8.80
2019-03-11T18:15:26.798Z,8.80
2019-03-11T18:17:54.493Z,8.60
2019-03-11T18:20:22.199Z,8.50
2019-03-11T18:22:49.903Z,8.60
2019-03-11T18:25:17.652Z,8.80
2019-03-11T18:27:45.338Z,8.80
2019-03-11T18:30:15.575Z,8.80
2019-03-11T18:32:44.319Z,8.70
2019-03-11T18:35:12.410Z,8.60
2019-03-11T18:37:40.208Z,8.60
2019-03-11T18:40:09.637Z,8.60
2019-03-11T18:42:37.317Z,8.50
2019-03-11T18:45:05.084Z,8.60
2019-03-11T18:47:32.949Z,8.50
2019-03-11T18:50:00.696Z,8.50
2019-03-11T18:52:28.420Z,8.40
2019-03-11T18:54:56.204Z,8.50
2019-03-11T18:57:23.916Z,8.30
2019-03-11T18:59:51.805Z,8.30
2019-03-11T19:02:19.541Z,8.40
2019-03-11T19:04:47.425Z,8.40
2019-03-11T19:07:15.183Z,8.50
2019-03-11T19:09:43.001Z,8.40
2019-03-11T19:12:10.904Z,8.40
2019-03-11T19:14:38.806Z,8.60
2019-03-11T19:17:06.613Z,8.60
2019-03-11T19:19:45.357Z,8.70
2019-03-11T19:22:03.948Z,8.50
2019-03-11T19:24:32.746Z,8.60
2019-03-11T19:27:00.770Z,8.40
2019-03-11T19:29:28.470Z,8.40
2019-03-11T19:31:56.223Z,8.50
2019-03-11T19:34:24.012Z,8.50
2019-03-11T19:36:51.731Z,8.50
2019-03-11T19:39:19.613Z,8.60
2019-03-11T19:41:47.439Z,8.80
2019-03-11T19:44:15.270Z,8.60
2019-03-11T19:46:42.913Z,8.30
2019-03-11T19:49:10.591Z,8.20
2019-03-11T19:51:38.301Z,8.00
2019-03-11T19:54:06.108Z,8.00
2019-03-11T19:56:33.806Z,8.00
2019-03-11T19:59:01.646Z,8.00
2019-03-11T20:01:29.495Z,7.80
2019-03-11T20:03:57.172Z,7.90
2019-03-11T20:06:24.929Z,8.00
2019-03-11T20:08:52.854Z,8.00
2019-03-11T20:11:20.819Z,8.10
2019-03-11T20:13:48.587Z,8.20
2019-03-11T20:16:16.271Z,8.20
2019-03-11T20:18:44.058Z,8.20
2019-03-11T20:21:11.886Z,8.20
2019-03-11T20:23:39.723Z,8.10
2019-03-11T20:26:07.668Z,8.10
2019-03-11T20:28:35.715Z,8.20
2019-03-11T20:31:03.652Z,8.30
2019-03-11T20:33:31.581Z,8.30
2019-03-11T20:35:59.335Z,8.20
2019-03-11T20:38:27.167Z,8.10
2019-03-11T20:40:54.995Z,7.90
2019-03-11T20:43:22.798Z,7.90
2019-03-11T20:45:50.501Z,7.80
2019-03-11T20:48:18.249Z,7.70
2019-03-11T20:51:04.353Z,7.70
2019-03-11T20:53:32.225Z,7.70
2019-03-11T20:55:59.927Z,7.60
2019-03-11T20:58:27.843Z,7.70
2019-03-11T21:00:55.496Z,7.70
2019-03-11T21:03:23.272Z,7.60
2019-03-11T21:05:51.346Z,7.60
2019-03-11T21:08:19.949Z,7.60
2019-03-11T21:10:47.697Z,7.60
2019-03-11T21:13:15.445Z,7.60
2019-03-11T21:15:43.213Z,7.80
2019-03-11T21:18:11.121Z,8.10
2019-03-11T21:20:38.869Z,8.20
2019-03-11T21:23:06.761Z,8.20
2019-03-11T21:25:34.522Z,8.00
2019-03-11T21:28:02.847Z,8.00
2019-03-11T21:30:30.903Z,8.00
2019-03-11T21:32:58.760Z,8.10
2019-03-11T21:35:26.647Z,8.00
2019-03-11T21:37:54.570Z,8.00
2019-03-11T21:40:22.538Z,7.90
2019-03-11T21:42:50.349Z,7.90
2019-03-11T21:45:18.021Z,8.00
2019-03-11T21:47:45.808Z,8.20
2019-03-11T21:50:15.371Z,8.10
2019-03-11T21:52:43.393Z,8.10
2019-03-11T21:55:11.141Z,8.00
2019-03-11T21:57:39.374Z,8.10
2019-03-11T22:00:09.391Z,8.10
2019-03-11T22:02:39.041Z,8.10
2019-03-11T22:05:06.777Z,8.10
2019-03-11T22:07:34.480Z,8.00
2019-03-11T22:10:03.702Z,7.80
2019-03-11T22:12:31.490Z,7.90
2019-03-11T22:14:59.182Z,7.90
2019-03-11T22:17:27.844Z,7.90
2019-03-11T22:19:55.527Z,7.90
2019-03-11T22:22:23.266Z,7.80
2019-03-11T22:24:50.950Z,7.70
2019-03-11T22:27:18.605Z,7.70
2019-03-11T22:29:46.324Z,7.60
2019-03-11T22:32:14.063Z,7.50
2019-03-11T22:34:42.741Z,7.40
2019-03-11T22:37:10.391Z,7.40
2019-03-11T22:39:38.185Z,7.20
2019-03-11T22:42:05.917Z,7.00
2019-03-11T22:44:33.947Z,7.00
2019-03-11T22:47:01.610Z,7.10
2019-03-11T22:49:29.309Z,7.10
2019-03-11T22:51:56.973Z,6.90
2019-03-11T22:54:24.637Z,6.90
2019-03-11T22:56:52.336Z,7.00
2019-03-11T22:59:20.031Z,7.10
2019-03-11T23:01:47.715Z,6.90
2019-03-11T23:04:15.545Z,6.70
2019-03-11T23:06:43.289Z,6.70
2019-03-11T23:09:10.973Z,6.80
2019-03-11T23:11:39.017Z,6.80
2019-03-11T23:14:06.676Z,6.80
2019-03-11T23:16:34.318Z,6.90
2019-03-11T23:19:02.285Z,7.00
2019-03-11T23:21:29.923Z,7.00
2019-03-11T23:23:57.576Z,6.90
2019-03-11T23:26:25.201Z,6.70
2019-03-11T23:28:52.879Z,6.70
2019-03-11T23:31:20.525Z,6.60
2019-03-11T23:33:48.208Z,6.60
2019-03-11T23:36:15.851Z,6.50
2019-03-11T23:38:43.531Z,6.70
2019-03-11T23:41:11.176Z,6.70
2019-03-11T23:43:38.828Z,6.70
2019-03-11T23:46:06.508Z,6.80
2019-03-11T23:48:34.159Z,6.90
2019-03-11T23:51:01.851Z,6.90
2019-03-11T23:53:29.489Z,7.00
2019-03-11T23:55:57.179Z,6.80
2019-03-11T23:58:24.856Z,6.70
